Scroll down
FLIGHT INFORMATION
Sunwing Airlines

SWG2201

At Arrival Gate

CYUL
 CYYT
DATE: 2020-10-03
GATE:  -
GATE DEPARTURE: 13:55
TAKEOFF: 14:03
DATE: 2020-10-03
GATE:  -
LANDING: 16:00
GATE ARRIVAL: 16:06
FLIGHT DATA
Speed: 
472 kts
Altitude: 
35,017 ft
Stage Length: 
873.5 nm
Block Time: 
2.2 hrs
Flight Time: 
2 hrs
Fuel Used: 
12,076 lb
Cleared Route: CYUL KEBGO RABIK MOBAL ANTOV YQM TAGRA TIGOR CYYT
TRACK DATA
50,000 ft 1,000 kts
AIRCRAFT INFO AND CUMULATIVE STATS
Aircraft Type: 
B738SSW
Registration: 
SELCAL: 
MSN/LN: 
39438 / 4816
Operator: 
Total Flights: 
5
Total Block Time: 
10.9 hrs
Total Flight Time: 
9.8 hrs
Total Fuel Time: 
62,605 lb
DATALINK LOG | Newest first | Current as of: 2020-11-29 02:24:53
LABEL SEQUENCE CONTENT Dn/Up
QD065816:06 7.9▼ Dn
QC005316:00▼ Dn
2U2415CYYT 031500Z 26023G33KT 15SM -DZ BKN010 OVC080 20/19 A2987 RMK SC6AC2 SLP117 DENSITY ALT 1300FT▲ Up
2S2518CYYT▼ Dn
GA1015GATE PENDING▲ Up
GR1004CYYT 16:14 YP/UM 00/00 WCHR/S/C 00/00/00 HI-VAL NO DIPL/VIP NO▼ Dn
2U0656CYYT 031300Z 25022G31KT 15SM -DZ OVC010 21/20 A2990 RMK SC8 SLP127 DENSITY ALT 1300FT▲ Up
2S0702CYYT▼ Dn
QB035914:03▼ Dn
QA555213:55 20▼ Dn
2U4824CYUL 031300Z 30004KT 290V350 15SM FEW010 FEW052 BKN130 BKN250 08/06 A3016 RMK CU1SC1AC5CI1 CU TR CI TR SLP217▲ Up
2S4846CYUL▼ Dn
A34653CLEARED TO CYYT VIA KEBGO RABIK Q951 ANTOV YQM TAGRA TIGOR TIGOR2. SQUAWK 2225.▲ Up
B34643CYUL CYYT WG2201 C-GNCH ▼ Dn
Q04441[LINK ACK]▲ Up
Q04441[LINK TEST]▼ Dn


AIRCRAFT HISTORY
FLIGHT DATE FLIGHT NO. ORIGIN DESTINATION CLEARED ROUTE BLOCK TIME FLIGHT TIME FUEL USED PILOT
2020-10-07SWG2201BIRK EGLL BIRK METIL NASBU MIKLA ING ROSTI LARUX MY MATIK BESGA MODGO STN ORSUM GOW FENIK LUSIV NAVSO BEBNI DCS LAKEY UTUXA HON DTY WOBUN BUZAD BPK LAM BEMID IPKUS EGLL3.1 hrs2.8 hrs16,822 lbRoberto Stopnicki
2020-10-04SWG2201CYYT BIRK CYYT JOOPY 5150N 5545N 5845N 6230N ELREX ELDIS BIRK3.7 hrs3.4 hrs21,256 lbRoberto Stopnicki
2020-10-03SWG2201CYUL CYYT CYUL KEBGO RABIK MOBAL ANTOV YQM TAGRA TIGOR CYYT2.2 hrs2 hrs12,076 lbRoberto Stopnicki
2020-05-27SWG527CYYZ CYUL CYYZ MIGLO CYUL1.1 hrs0.9 hrs6,096 lb-HIDDEN-
2019-11-21SWG1121CYUL CYYZ 1.2 hrs0.9 hrs6,356 lb-HIDDEN-